sensor_id;sensor_type;location;lat;lon;timestamp;pressure;altitude;pressure_sealevel;temperature;humidity
51287;BME280;37364;46.974;18.916;2023-04-28T00:01:21;151160.72;;;3.22;100.00
51287;BME280;37364;46.974;18.916;2023-04-28T00:03:54;151158.13;;;3.21;100.00
51287;BME280;37364;46.974;18.916;2023-04-28T00:06:25;151167.13;;;3.24;100.00
51287;BME280;37364;46.974;18.916;2023-04-28T00:08:56;151155.56;;;3.20;100.00
51287;BME280;37364;46.974;18.916;2023-04-28T00:11:29;151150.41;;;3.17;100.00
51287;BME280;37364;46.974;18.916;2023-04-28T00:13:59;151150.41;;;3.17;100.00
51287;BME280;37364;46.974;18.916;2023-04-28T00:16:30;151150.41;;;3.17;100.00
51287;BME280;37364;46.974;18.916;2023-04-28T00:19:00;151147.81;;;3.16;100.00
51287;BME280;37364;46.974;18.916;2023-04-28T00:21:30;151145.22;;;3.15;100.00
51287;BME280;37364;46.974;18.916;2023-04-28T00:24:00;151137.53;;;3.12;100.00
51287;BME280;37364;46.974;18.916;2023-04-28T00:26:33;151134.91;;;3.11;100.00
51287;BME280;37364;46.974;18.916;2023-04-28T00:29:03;151122.06;;;3.06;100.00
51287;BME280;37364;46.974;18.916;2023-04-28T00:31:36;151125.94;;;3.08;100.00
51287;BME280;37364;46.974;18.916;2023-04-28T00:34:07;151113.06;;;3.03;100.00
51287;BME280;37364;46.974;18.916;2023-04-28T00:36:40;151104.03;;;2.99;100.00
51287;BME280;37364;46.974;18.916;2023-04-28T00:39:11;151095.00;;;2.95;100.00
51287;BME280;37364;46.974;18.916;2023-04-28T00:41:43;151078.31;;;2.89;100.00
51287;BME280;37364;46.974;18.916;2023-04-28T00:44:13;151047.41;;;2.76;100.00
51287;BME280;37364;46.974;18.916;2023-04-28T00:46:44;151022.97;;;2.67;100.00
51287;BME280;37364;46.974;18.916;2023-04-28T00:49:14;151019.09;;;2.65;100.00
51287;BME280;37364;46.974;18.916;2023-04-28T00:51:45;151026.78;;;2.68;100.00
51287;BME280;37364;46.974;18.916;2023-04-28T00:54:15;151022.97;;;2.67;100.00
51287;BME280;37364;46.974;18.916;2023-04-28T00:56:48;151021.66;;;2.66;100.00
51287;BME280;37364;46.974;18.916;2023-04-28T00:59:18;151012.66;;;2.63;100.00
51287;BME280;37364;46.974;18.916;2023-04-28T01:01:49;151003.66;;;2.59;100.00
51287;BME280;37364;46.974;18.916;2023-04-28T01:04:19;150997.19;;;2.56;100.00
51287;BME280;37364;46.974;18.916;2023-04-28T01:06:52;150988.22;;;2.53;100.00
51287;BME280;37364;46.974;18.916;2023-04-28T01:09:25;150976.59;;;2.48;100.00
51287;BME280;37364;46.974;18.916;2023-04-28T01:12:00;150975.34;;;2.48;100.00
51287;BME280;37364;46.974;18.916;2023-04-28T01:14:46;150981.75;;;2.50;100.00
51287;BME280;37364;46.974;18.916;2023-04-28T01:17:17;150983.03;;;2.51;100.00
51287;BME280;37364;46.974;18.916;2023-04-28T01:19:48;150992.03;;;2.54;100.00
51287;BME280;37364;46.974;18.916;2023-04-28T01:22:19;150980.47;;;2.50;100.00
51287;BME280;37364;46.974;18.916;2023-04-28T01:24:51;150977.88;;;2.49;100.00
51287;BME280;37364;46.974;18.916;2023-04-28T01:27:22;150985.63;;;2.52;100.00
51287;BME280;37364;46.974;18.916;2023-04-28T01:29:52;150999.78;;;2.57;100.00
51287;BME280;37364;46.974;18.916;2023-04-28T01:32:23;151011.34;;;2.62;100.00
51287;BME280;37364;46.974;18.916;2023-04-28T01:34:55;151019.09;;;2.65;100.00
51287;BME280;37364;46.974;18.916;2023-04-28T01:37:25;151051.25;;;2.78;100.00
51287;BME280;37364;46.974;18.916;2023-04-28T01:39:58;151064.13;;;2.83;100.00
51287;BME280;37364;46.974;18.916;2023-04-28T01:42:28;151033.25;;;2.71;100.00
51287;BME280;37364;46.974;18.916;2023-04-28T01:45:01;151024.25;;;2.67;100.00
51287;BME280;37364;46.974;18.916;2023-04-28T01:47:32;151016.50;;;2.64;100.00
51287;BME280;37364;46.974;18.916;2023-04-28T01:50:02;151016.50;;;2.64;100.00
51287;BME280;37364;46.974;18.916;2023-04-28T01:52:34;151017.81;;;2.65;100.00
51287;BME280;37364;46.974;18.916;2023-04-28T01:55:08;151020.38;;;2.66;100.00
51287;BME280;37364;46.974;18.916;2023-04-28T01:57:38;151016.50;;;2.64;100.00
51287;BME280;37364;46.974;18.916;2023-04-28T02:00:09;151011.34;;;2.62;100.00
51287;BME280;37364;46.974;18.916;2023-04-28T02:02:47;150998.50;;;2.57;100.00
51287;BME280;37364;46.974;18.916;2023-04-28T02:05:17;150992.03;;;2.54;100.00
51287;BME280;37364;46.974;18.916;2023-04-28T02:07:49;150990.78;;;2.54;100.00
51287;BME280;37364;46.974;18.916;2023-04-28T02:10:22;150984.34;;;2.51;100.00
51287;BME280;37364;46.974;18.916;2023-04-28T02:12:53;150980.47;;;2.50;100.00
51287;BME280;37364;46.974;18.916;2023-04-28T02:15:23;150986.91;;;2.52;100.00
51287;BME280;37364;46.974;18.916;2023-04-28T02:17:54;150985.63;;;2.52;100.00
51287;BME280;37364;46.974;18.916;2023-04-28T02:20:25;150988.22;;;2.53;100.00
51287;BME280;37364;46.974;18.916;2023-04-28T02:22:58;151003.66;;;2.59;100.00
51287;BME280;37364;46.974;18.916;2023-04-28T02:25:31;151029.38;;;2.69;100.00
51287;BME280;37364;46.974;18.916;2023-04-28T02:28:02;151035.81;;;2.72;100.00
51287;BME280;37364;46.974;18.916;2023-04-28T02:30:34;151055.13;;;2.80;100.00
51287;BME280;37364;46.974;18.916;2023-04-28T02:33:05;151086.00;;;2.92;100.00
51287;BME280;37364;46.974;18.916;2023-04-28T02:35:35;151110.47;;;3.02;100.00
51287;BME280;37364;46.974;18.916;2023-04-28T02:38:06;151140.06;;;3.13;100.00
51287;BME280;37364;46.974;18.916;2023-04-28T02:40:38;151165.84;;;3.24;100.00
51287;BME280;37364;46.974;18.916;2023-04-28T02:43:08;151210.91;;;3.42;100.00
51287;BME280;37364;46.974;18.916;2023-04-28T02:45:39;151227.66;;;3.48;100.00
51287;BME280;37364;46.974;18.916;2023-04-28T02:48:09;151250.84;;;3.58;100.00
51287;BME280;37364;46.974;18.916;2023-04-28T02:50:40;151263.75;;;3.63;100.00
51287;BME280;37364;46.974;18.916;2023-04-28T02:53:12;151267.56;;;3.64;100.00
51287;BME280;37364;46.974;18.916;2023-04-28T02:55:45;151301.06;;;3.78;100.00
51287;BME280;37364;46.974;18.916;2023-04-28T02:58:15;151310.09;;;3.81;100.00
51287;BME280;37364;46.974;18.916;2023-04-28T03:00:47;151308.81;;;3.81;100.00
51287;BME280;37364;46.974;18.916;2023-04-28T03:03:17;151326.81;;;3.88;100.00
51287;BME280;37364;46.974;18.916;2023-04-28T03:05:48;151339.72;;;3.93;100.00
51287;BME280;37364;46.974;18.916;2023-04-28T03:08:18;151331.97;;;3.90;100.00
51287;BME280;37364;46.974;18.916;2023-04-28T03:10:51;151338.44;;;3.92;100.00
51287;BME280;37364;46.974;18.916;2023-04-28T03:13:21;151317.84;;;3.84;100.00
51287;BME280;37364;46.974;18.916;2023-04-28T03:15:52;151306.22;;;3.80;100.00
51287;BME280;37364;46.974;18.916;2023-04-28T03:18:22;151304.94;;;3.79;100.00
51287;BME280;37364;46.974;18.916;2023-04-28T03:20:54;151304.94;;;3.79;100.00
51287;BME280;37364;46.974;18.916;2023-04-28T03:23:26;151302.34;;;3.78;100.00
51287;BME280;37364;46.974;18.916;2023-04-28T03:25:59;151299.78;;;3.77;100.00
51287;BME280;37364;46.974;18.916;2023-04-28T03:28:30;151289.50;;;3.73;100.00
51287;BME280;37364;46.974;18.916;2023-04-28T03:31:00;151274.03;;;3.67;100.00
51287;BME280;37364;46.974;18.916;2023-04-28T03:33:31;151248.25;;;3.56;100.00
51287;BME280;37364;46.974;18.916;2023-04-28T03:36:01;151250.84;;;3.58;100.00
51287;BME280;37364;46.974;18.916;2023-04-28T03:38:31;151246.97;;;3.56;100.00
51287;BME280;37364;46.974;18.916;2023-04-28T03:41:04;151246.97;;;3.56;100.00
51287;BME280;37364;46.974;18.916;2023-04-28T03:44:10;151252.13;;;3.58;100.00
51287;BME280;37364;46.974;18.916;2023-04-28T03:46:48;151230.25;;;3.49;100.00
51287;BME280;37364;46.974;18.916;2023-04-28T03:49:18;151232.78;;;3.50;100.00
51287;BME280;37364;46.974;18.916;2023-04-28T03:51:48;151232.78;;;3.50;100.00
51287;BME280;37364;46.974;18.916;2023-04-28T03:54:19;151230.25;;;3.49;100.00
51287;BME280;37364;46.974;18.916;2023-04-28T03:56:52;151231.53;;;3.50;100.00
51287;BME280;37364;46.974;18.916;2023-04-28T03:59:23;151226.38;;;3.48;100.00
51287;BME280;37364;46.974;18.916;2023-04-28T04:01:54;151243.09;;;3.54;100.00
51287;BME280;37364;46.974;18.916;2023-04-28T04:04:24;151252.13;;;3.58;100.00
51287;BME280;37364;46.974;18.916;2023-04-28T04:06:55;151271.44;;;3.66;100.00
51287;BME280;37364;46.974;18.916;2023-04-28T04:09:25;151285.63;;;3.71;100.00
51287;BME280;37364;46.974;18.916;2023-04-28T04:11:58;151308.81;;;3.81;100.00
51287;BME280;37364;46.974;18.916;2023-04-28T04:14:28;151328.16;;;3.88;100.00
51287;BME280;37364;46.974;18.916;2023-04-28T04:16:59;151338.44;;;3.92;100.00
51287;BME280;37364;46.974;18.916;2023-04-28T04:19:29;151371.94;;;4.06;100.00
51287;BME280;37364;46.974;18.916;2023-04-28T04:22:00;151414.44;;;4.23;100.00
51287;BME280;37364;46.974;18.916;2023-04-28T04:24:30;151451.84;;;4.38;100.00
51287;BME280;37364;46.974;18.916;2023-04-28T04:27:03;151504.66;;;4.59;100.00
51287;BME280;37364;46.974;18.916;2023-04-28T04:29:37;151530.47;;;4.69;100.00
51287;BME280;37364;46.974;18.916;2023-04-28T04:32:12;151575.56;;;4.87;100.00
51287;BME280;37364;46.974;18.916;2023-04-28T04:34:42;151619.44;;;5.04;100.00
51287;BME280;37364;46.974;18.916;2023-04-28T04:37:12;151652.97;;;5.18;100.00
51287;BME280;37364;46.974;18.916;2023-04-28T04:39:52;151685.16;;;5.30;100.00
51287;BME280;37364;46.974;18.916;2023-04-28T04:42:25;151721.28;;;5.45;100.00
51287;BME280;37364;46.974;18.916;2023-04-28T04:45:17;151770.28;;;5.64;100.00
51287;BME280;37364;46.974;18.916;2023-04-28T04:47:48;151837.41;;;5.91;100.00
51287;BME280;37364;46.974;18.916;2023-04-28T04:50:19;151900.69;;;6.16;100.00
51287;BME280;37364;46.974;18.916;2023-04-28T04:52:49;151956.19;;;6.38;100.00
51287;BME280;37364;46.974;18.916;2023-04-28T04:55:21;152003.94;;;6.57;100.00
51287;BME280;37364;46.974;18.916;2023-04-28T04:57:54;152028.47;;;6.67;100.00
51287;BME280;37364;46.974;18.916;2023-04-28T05:00:43;152076.22;;;6.86;100.00
51287;BME280;37364;46.974;18.916;2023-04-28T05:03:14;152116.28;;;7.02;100.00
51287;BME280;37364;46.974;18.916;2023-04-28T05:05:45;152146.00;;;7.13;100.00
51287;BME280;37364;46.974;18.916;2023-04-28T05:08:20;152196.34;;;7.33;100.00
51287;BME280;37364;46.974;18.916;2023-04-28T05:10:51;152233.78;;;7.48;100.00
51287;BME280;37364;46.974;18.916;2023-04-28T05:13:23;152277.72;;;7.66;100.00
51287;BME280;37364;46.974;18.916;2023-04-28T05:15:59;152320.38;;;7.83;100.00
51287;BME280;37364;46.974;18.916;2023-04-28T05:18:35;152348.81;;;7.94;100.00
51287;BME280;37364;46.974;18.916;2023-04-28T05:21:05;152361.72;;;7.99;100.00
51287;BME280;37364;46.974;18.916;2023-04-28T05:23:37;152355.25;;;7.97;100.00
51287;BME280;37364;46.974;18.916;2023-04-28T05:26:08;152344.94;;;7.92;100.00
51287;BME280;37364;46.974;18.916;2023-04-28T05:28:41;152343.66;;;7.92;100.00
51287;BME280;37364;46.974;18.916;2023-04-28T05:31:11;152357.81;;;7.98;100.00
51287;BME280;37364;46.974;18.916;2023-04-28T05:33:42;152391.44;;;8.11;100.00
51287;BME280;37364;46.974;18.916;2023-04-28T05:36:13;152357.81;;;7.98;100.00
51287;BME280;37364;46.974;18.916;2023-04-28T05:38:45;152255.78;;;7.57;100.00
51287;BME280;37364;46.974;18.916;2023-04-28T05:41:15;152198.91;;;7.35;100.00
51287;BME280;37364;46.974;18.916;2023-04-28T05:43:48;152211.84;;;7.40;100.00
51287;BME280;37364;46.974;18.916;2023-04-28T05:46:19;152204.06;;;7.37;100.00
51287;BME280;37364;46.974;18.916;2023-04-28T05:48:58;152279.03;;;7.66;100.00
51287;BME280;37364;46.974;18.916;2023-04-28T05:51:34;152290.66;;;7.71;100.00
51287;BME280;37364;46.974;18.916;2023-04-28T05:54:04;152381.09;;;8.07;100.00
51287;BME280;37364;46.974;18.916;2023-04-28T05:56:41;152475.50;;;8.44;100.00
51287;BME280;37364;46.974;18.916;2023-04-28T05:59:14;152518.19;;;8.61;100.00
51287;BME280;37364;46.974;18.916;2023-04-28T06:01:44;152484.56;;;8.48;100.00
51287;BME280;37364;46.974;18.916;2023-04-28T06:04:16;152554.38;;;8.76;100.00
51287;BME280;37364;46.974;18.916;2023-04-28T06:06:48;152657.81;;;9.17;100.00
51287;BME280;37364;46.974;18.916;2023-04-28T06:09:19;152620.34;;;9.02;100.00
51287;BME280;37364;46.974;18.916;2023-04-28T06:11:52;152600.94;;;8.94;100.00
51287;BME280;37364;46.974;18.916;2023-04-28T06:14:25;152686.28;;;9.28;100.00
51287;BME280;37364;46.974;18.916;2023-04-28T06:16:55;152738.00;;;9.48;100.00
51287;BME280;37364;46.974;18.916;2023-04-28T06:19:26;152815.66;;;9.79;100.00
51287;BME280;37364;46.974;18.916;2023-04-28T06:21:56;152735.47;;;9.47;100.00
51287;BME280;37364;46.974;18.916;2023-04-28T06:24:26;152750.97;;;9.54;100.00
51287;BME280;37364;46.974;18.916;2023-04-28T06:26:57;152805.31;;;9.75;100.00
51287;BME280;37364;46.974;18.916;2023-04-28T06:29:31;152886.88;;;10.07;100.00
51287;BME280;37364;46.974;18.916;2023-04-28T06:32:01;152752.25;;;9.54;100.00
51287;BME280;37364;46.974;18.916;2023-04-28T06:34:32;152849.31;;;9.93;100.00
51287;BME280;37364;46.974;18.916;2023-04-28T06:37:03;152921.81;;;10.21;100.00
51287;BME280;37364;46.974;18.916;2023-04-28T06:39:34;152952.91;;;10.34;100.00
51287;BME280;37364;46.974;18.916;2023-04-28T06:42:05;152916.63;;;10.19;100.00
51287;BME280;37364;46.974;18.916;2023-04-28T06:44:43;152873.91;;;10.02;100.00
51287;BME280;37364;46.974;18.916;2023-04-28T06:47:13;153011.19;;;10.57;100.00
51287;BME280;37364;46.974;18.916;2023-04-28T06:49:44;153029.28;;;10.64;100.00
51287;BME280;37364;46.974;18.916;2023-04-28T06:52:16;153057.78;;;10.75;100.00
51287;BME280;37364;46.974;18.916;2023-04-28T06:55:01;153148.41;;;11.11;100.00
51287;BME280;37364;46.974;18.916;2023-04-28T06:57:31;153161.38;;;11.16;100.00
51287;BME280;37364;46.974;18.916;2023-04-28T07:00:05;153179.53;;;11.23;100.00
51287;BME280;37364;46.974;18.916;2023-04-28T07:02:36;153262.41;;;11.56;100.00
51287;BME280;37364;46.974;18.916;2023-04-28T07:05:07;153283.19;;;11.64;100.00
51287;BME280;37364;46.974;18.916;2023-04-28T07:07:40;153310.38;;;11.75;100.00
51287;BME280;37364;46.974;18.916;2023-04-28T07:10:11;153364.84;;;11.97;100.00
51287;BME280;37364;46.974;18.916;2023-04-28T07:12:45;153366.13;;;11.97;100.00
51287;BME280;37364;46.974;18.916;2023-04-28T07:15:18;153346.69;;;11.90;100.00
51287;BME280;37364;46.974;18.916;2023-04-28T07:17:51;153333.69;;;11.84;100.00
51287;BME280;37364;46.974;18.916;2023-04-28T07:20:21;153398.53;;;12.10;100.00
51287;BME280;37364;46.974;18.916;2023-04-28T07:22:52;153381.66;;;12.03;100.00
51287;BME280;37364;46.974;18.916;2023-04-28T07:25:22;153503.53;;;12.52;100.00
51287;BME280;37364;46.974;18.916;2023-04-28T07:27:52;153555.44;;;12.72;100.00
51287;BME280;37364;46.974;18.916;2023-04-28T07:30:26;153648.75;;;13.09;100.00
51287;BME280;37364;46.974;18.916;2023-04-28T07:32:59;153705.91;;;13.32;98.37
51287;BME280;37364;46.974;18.916;2023-04-28T07:35:30;153795.41;;;13.67;97.74
51287;BME280;37364;46.974;18.916;2023-04-28T07:38:01;153717.56;;;13.36;93.57
51287;BME280;37364;46.974;18.916;2023-04-28T07:40:31;153681.22;;;13.22;94.16
51287;BME280;37364;46.974;18.916;2023-04-28T07:43:01;153705.91;;;13.32;98.24
51287;BME280;37364;46.974;18.916;2023-04-28T07:45:36;153790.22;;;13.65;94.16
51287;BME280;37364;46.974;18.916;2023-04-28T07:48:07;153831.72;;;13.81;84.14
51287;BME280;37364;46.974;18.916;2023-04-28T07:50:37;153933.00;;;14.21;84.24
51287;BME280;37364;46.974;18.916;2023-04-28T07:53:08;154109.56;;;14.91;80.59
51287;BME280;37364;46.974;18.916;2023-04-28T07:55:38;154148.53;;;15.07;75.70
51287;BME280;37364;46.974;18.916;2023-04-28T07:58:09;154214.81;;;15.33;80.68
51287;BME280;37364;46.974;18.916;2023-04-28T08:00:43;154190.13;;;15.23;75.61
51287;BME280;37364;46.974;18.916;2023-04-28T08:03:13;154153.72;;;15.09;72.66
51287;BME280;37364;46.974;18.916;2023-04-28T08:05:44;154253.75;;;15.48;63.95
51287;BME280;37364;46.974;18.916;2023-04-28T08:08:14;154342.16;;;15.83;67.26
51287;BME280;37364;46.974;18.916;2023-04-28T08:10:44;154448.75;;;16.25;69.08
51287;BME280;37364;46.974;18.916;2023-04-28T08:13:16;154494.22;;;16.43;67.40
51287;BME280;37364;46.974;18.916;2023-04-28T08:15:49;154433.09;;;16.19;61.61
51287;BME280;37364;46.974;18.916;2023-04-28T08:18:22;154387.63;;;16.01;64.78
51287;BME280;37364;46.974;18.916;2023-04-28T08:20:53;154513.72;;;16.51;64.67
51287;BME280;37364;46.974;18.916;2023-04-28T08:23:23;154496.78;;;16.44;63.30
51287;BME280;37364;46.974;18.916;2023-04-28T08:25:56;154621.66;;;16.93;62.01
51287;BME280;37364;46.974;18.916;2023-04-28T08:28:27;154535.81;;;16.59;63.51
51287;BME280;37364;46.974;18.916;2023-04-28T08:31:00;154647.69;;;17.04;61.08
51287;BME280;37364;46.974;18.916;2023-04-28T08:33:31;154693.19;;;17.22;58.23
51287;BME280;37364;46.974;18.916;2023-04-28T08:36:01;154528.03;;;16.56;54.42
51287;BME280;37364;46.974;18.916;2023-04-28T08:38:32;154681.47;;;17.17;58.22
51287;BME280;37364;46.974;18.916;2023-04-28T08:41:03;154799.84;;;17.64;54.30
51287;BME280;37364;46.974;18.916;2023-04-28T08:43:34;154837.59;;;17.78;54.29
51287;BME280;37364;46.974;18.916;2023-04-28T08:46:09;154855.88;;;17.86;51.17
51287;BME280;37364;46.974;18.916;2023-04-28T08:48:40;154732.22;;;17.37;52.21
51287;BME280;37364;46.974;18.916;2023-04-28T08:51:14;154769.91;;;17.52;52.63
51287;BME280;37364;46.974;18.916;2023-04-28T08:53:49;154857.16;;;17.86;50.58
51287;BME280;37364;46.974;18.916;2023-04-28T08:56:43;154943.03;;;18.20;52.34
51287;BME280;37364;46.974;18.916;2023-04-28T08:59:13;154959.91;;;18.27;50.19
51287;BME280;37364;46.974;18.916;2023-04-28T09:01:49;155056.25;;;18.65;44.18
51287;BME280;37364;46.974;18.916;2023-04-28T09:04:19;155005.50;;;18.45;42.83
51287;BME280;37364;46.974;18.916;2023-04-28T09:06:50;154965.16;;;18.29;47.29
51287;BME280;37364;46.974;18.916;2023-04-28T09:09:21;154875.34;;;17.93;48.05
51287;BME280;37364;46.974;18.916;2023-04-28T09:11:52;154766.00;;;17.50;50.35
51287;BME280;37364;46.974;18.916;2023-04-28T09:14:24;154715.28;;;17.30;47.26
51287;BME280;37364;46.974;18.916;2023-04-28T09:16:58;154818.06;;;17.71;49.76
51287;BME280;37364;46.974;18.916;2023-04-28T09:19:32;154849.28;;;17.83;48.90
51287;BME280;37364;46.974;18.916;2023-04-28T09:22:04;154936.53;;;18.17;47.20
51287;BME280;37364;46.974;18.916;2023-04-28T09:24:52;154983.34;;;18.36;48.03
51287;BME280;37364;46.974;18.916;2023-04-28T09:27:26;155144.84;;;19.00;47.81
51287;BME280;37364;46.974;18.916;2023-04-28T09:29:57;154958.63;;;18.26;46.50
51287;BME280;37364;46.974;18.916;2023-04-28T09:32:30;154962.53;;;18.28;45.43
51287;BME280;37364;46.974;18.916;2023-04-28T09:35:00;154871.47;;;17.92;47.25
51287;BME280;37364;46.974;18.916;2023-04-28T09:37:31;154874.03;;;17.93;47.80
51287;BME280;37364;46.974;18.916;2023-04-28T09:40:06;155060.19;;;18.66;50.98
51287;BME280;37364;46.974;18.916;2023-04-28T09:42:39;154798.53;;;17.63;48.40
51287;BME280;37364;46.974;18.916;2023-04-28T09:45:11;154866.28;;;17.90;48.39
51287;BME280;37364;46.974;18.916;2023-04-28T09:47:45;154896.19;;;18.02;50.04
51287;BME280;37364;46.974;18.916;2023-04-28T09:50:16;155086.22;;;18.76;47.63
51287;BME280;37364;46.974;18.916;2023-04-28T09:52:56;155094.03;;;18.80;47.81
51287;BME280;37364;46.974;18.916;2023-04-28T09:55:27;155075.78;;;18.72;43.70
51287;BME280;37364;46.974;18.916;2023-04-28T09:58:00;155058.84;;;18.66;45.22
51287;BME280;37364;46.974;18.916;2023-04-28T10:00:35;155151.34;;;19.02;45.89
51287;BME280;37364;46.974;18.916;2023-04-28T10:03:10;155125.31;;;18.92;46.28
51287;BME280;37364;46.974;18.916;2023-04-28T10:05:45;154891.00;;;18.00;44.23
51287;BME280;37364;46.974;18.916;2023-04-28T10:08:16;155152.63;;;19.03;47.22
51287;BME280;37364;46.974;18.916;2023-04-28T10:10:48;155264.66;;;19.47;45.83
51287;BME280;37364;46.974;18.916;2023-04-28T10:13:20;155168.25;;;19.09;45.81
51287;BME280;37364;46.974;18.916;2023-04-28T10:15:51;155176.09;;;19.12;44.24
51287;BME280;37364;46.974;18.916;2023-04-28T10:18:29;155258.09;;;19.44;44.59
51287;BME280;37364;46.974;18.916;2023-04-28T10:21:02;155286.75;;;19.55;49.22
51287;BME280;37364;46.974;18.916;2023-04-28T10:23:48;155354.56;;;19.82;47.94
51287;BME280;37364;46.974;18.916;2023-04-28T10:26:33;155092.69;;;18.79;47.87
51287;BME280;37364;46.974;18.916;2023-04-28T10:29:06;155133.09;;;18.95;46.07
51287;BME280;37364;46.974;18.916;2023-04-28T10:31:36;155252.91;;;19.42;43.64
51287;BME280;37364;46.974;18.916;2023-04-28T10:34:25;155324.56;;;19.70;45.15
51287;BME280;37364;46.974;18.916;2023-04-28T10:36:57;155176.09;;;19.12;43.94
51287;BME280;37364;46.974;18.916;2023-04-28T10:39:28;155256.81;;;19.44;44.75
51287;BME280;37364;46.974;18.916;2023-04-28T10:41:59;155368.91;;;19.88;44.46
51287;BME280;37364;46.974;18.916;2023-04-28T10:44:41;155510.91;;;20.44;43.31
51287;BME280;37364;46.974;18.916;2023-04-28T10:47:12;155406.66;;;20.03;45.19
51287;BME280;37364;46.974;18.916;2023-04-28T10:50:07;155230.78;;;19.33;47.69
51287;BME280;37364;46.974;18.916;2023-04-28T10:52:50;155001.59;;;18.43;42.70
51287;BME280;37364;46.974;18.916;2023-04-28T10:55:30;155238.56;;;19.36;45.62
51287;BME280;37364;46.974;18.916;2023-04-28T10:58:30;155204.75;;;19.23;42.38
51287;BME280;37364;46.974;18.916;2023-04-28T11:01:24;155014.59;;;18.48;44.48
51287;BME280;37364;46.974;18.916;2023-04-28T11:03:56;154970.38;;;18.31;46.76
51287;BME280;37364;46.974;18.916;2023-04-28T11:06:35;154870.13;;;17.91;48.35
51287;BME280;37364;46.974;18.916;2023-04-28T11:12:14;154819.34;;;17.71;44.21
51287;BME280;37364;46.974;18.916;2023-04-28T11:14:45;154920.91;;;18.11;46.50
51287;BME280;37364;46.974;18.916;2023-04-28T11:17:15;154901.41;;;18.04;45.32
51287;BME280;37364;46.974;18.916;2023-04-28T11:19:48;154832.38;;;17.76;46.09
51287;BME280;37364;46.974;18.916;2023-04-28T11:22:21;154747.81;;;17.43;44.05
51287;BME280;37364;46.974;18.916;2023-04-28T11:24:55;154906.59;;;18.06;47.36
51287;BME280;37364;46.974;18.916;2023-04-28T11:27:26;154969.03;;;18.30;46.29
51287;BME280;37364;46.974;18.916;2023-04-28T11:29:57;155012.00;;;18.47;46.21
51287;BME280;37364;46.974;18.916;2023-04-28T11:32:29;155203.41;;;19.23;46.50
51287;BME280;37364;46.974;18.916;2023-04-28T11:35:00;155234.69;;;19.35;43.42
51287;BME280;37364;46.974;18.916;2023-04-28T11:37:33;155058.84;;;18.66;45.28
51287;BME280;37364;46.974;18.916;2023-04-28T11:40:09;155014.59;;;18.48;44.96
51287;BME280;37364;46.974;18.916;2023-04-28T11:42:46;155419.69;;;20.08;44.82
51287;BME280;37364;46.974;18.916;2023-04-28T11:45:17;155349.38;;;19.80;45.60
51287;BME280;37364;46.974;18.916;2023-04-28T11:47:47;155357.16;;;19.83;45.40
51287;BME280;37364;46.974;18.916;2023-04-28T11:50:36;155190.41;;;19.17;44.98
51287;BME280;37364;46.974;18.916;2023-04-28T11:53:09;155116.19;;;18.88;45.58
51287;BME280;37364;46.974;18.916;2023-04-28T11:55:39;155125.31;;;18.92;45.19
51287;BME280;37364;46.974;18.916;2023-04-28T11:58:19;155401.44;;;20.01;46.22
51287;BME280;37364;46.974;18.916;2023-04-28T12:01:06;155291.97;;;19.58;44.96
51287;BME280;37364;46.974;18.916;2023-04-28T12:03:43;155116.19;;;18.88;45.38
51287;BME280;37364;46.974;18.916;2023-04-28T12:06:16;155259.44;;;19.45;47.10
51287;BME280;37364;46.974;18.916;2023-04-28T12:08:50;155381.91;;;19.93;46.87
51287;BME280;37364;46.974;18.916;2023-04-28T12:11:20;155484.84;;;20.33;45.74
51287;BME280;37364;46.974;18.916;2023-04-28T12:14:05;155581.31;;;20.71;46.28
51287;BME280;37364;46.974;18.916;2023-04-28T12:16:40;155318.00;;;19.68;44.60
51287;BME280;37364;46.974;18.916;2023-04-28T12:19:15;155443.16;;;20.17;44.39
51287;BME280;37364;46.974;18.916;2023-04-28T12:22:00;155581.31;;;20.71;46.05
51287;BME280;37364;46.974;18.916;2023-04-28T12:24:33;155684.31;;;21.12;46.43
51287;BME280;37364;46.974;18.916;2023-04-28T12:27:15;155454.88;;;20.22;44.38
51287;BME280;37364;46.974;18.916;2023-04-28T12:29:47;155349.38;;;19.80;44.74
51287;BME280;37364;46.974;18.916;2023-04-28T12:32:18;155133.09;;;18.95;46.53
51287;BME280;37364;46.974;18.916;2023-04-28T12:34:49;155191.72;;;19.18;47.14
51287;BME280;37364;46.974;18.916;2023-04-28T12:37:19;155276.34;;;19.51;46.83
51287;BME280;37364;46.974;18.916;2023-04-28T12:39:52;155462.72;;;20.25;46.74
51287;BME280;37364;46.974;18.916;2023-04-28T12:42:22;155475.72;;;20.30;46.87
51287;BME280;37364;46.974;18.916;2023-04-28T12:44:52;155456.16;;;20.22;45.75
51287;BME280;37364;46.974;18.916;2023-04-28T12:47:23;155340.22;;;19.77;44.79
51287;BME280;37364;46.974;18.916;2023-04-28T12:49:54;155484.84;;;20.33;47.38
51287;BME280;37364;46.974;18.916;2023-04-28T12:52:24;155435.31;;;20.14;45.61
51287;BME280;37364;46.974;18.916;2023-04-28T12:54:58;155389.75;;;19.96;47.48
51287;BME280;37364;46.974;18.916;2023-04-28T12:57:28;155564.41;;;20.65;46.69
51287;BME280;37364;46.974;18.916;2023-04-28T12:59:58;155613.94;;;20.84;44.72
51287;BME280;37364;46.974;18.916;2023-04-28T13:02:29;155453.59;;;20.21;47.59
51287;BME280;37364;46.974;18.916;2023-04-28T13:04:59;155634.78;;;20.92;45.55
51287;BME280;37364;46.974;18.916;2023-04-28T13:07:30;155475.72;;;20.30;45.37
51287;BME280;37364;46.974;18.916;2023-04-28T13:10:03;155590.44;;;20.75;47.83
51287;BME280;37364;46.974;18.916;2023-04-28T13:12:34;155689.53;;;21.14;46.26